sensor_id;sensor_type;location;lat;lon;timestamp;pressure;altitude;pressure_sealevel;temperature;humidity
8286;BME280;4181;43.416;24.598;2023-03-04T00:01:24;100094.94;;;9.39;100.00
8286;BME280;4181;43.416;24.598;2023-03-04T00:03:50;100101.38;;;9.33;100.00
8286;BME280;4181;43.416;24.598;2023-03-04T00:06:15;100087.16;;;9.31;100.00
8286;BME280;4181;43.416;24.598;2023-03-04T00:08:41;100095.81;;;9.28;100.00
8286;BME280;4181;43.416;24.598;2023-03-04T00:11:06;100096.63;;;9.28;100.00
8286;BME280;4181;43.416;24.598;2023-03-04T00:13:32;100076.91;;;9.21;100.00
8286;BME280;4181;43.416;24.598;2023-03-04T00:15:57;100080.09;;;9.18;100.00
8286;BME280;4181;43.416;24.598;2023-03-04T00:18:23;100081.47;;;9.32;100.00
8286;BME280;4181;43.416;24.598;2023-03-04T00:20:48;100089.47;;;9.39;100.00
8286;BME280;4181;43.416;24.598;2023-03-04T00:23:15;100085.22;;;9.43;100.00
8286;BME280;4181;43.416;24.598;2023-03-04T00:25:40;100076.63;;;9.34;100.00
8286;BME280;4181;43.416;24.598;2023-03-04T00:28:06;100080.81;;;9.42;100.00
8286;BME280;4181;43.416;24.598;2023-03-04T00:30:34;100083.72;;;9.52;100.00
8286;BME280;4181;43.416;24.598;2023-03-04T00:32:59;100084.22;;;9.49;100.00
8286;BME280;4181;43.416;24.598;2023-03-04T00:35:25;100081.72;;;9.03;100.00
8286;BME280;4181;43.416;24.598;2023-03-04T00:37:51;100050.75;;;8.92;100.00
8286;BME280;4181;43.416;24.598;2023-03-04T00:40:18;100054.66;;;8.96;100.00
8286;BME280;4181;43.416;24.598;2023-03-04T00:42:43;100065.84;;;9.11;100.00
8286;BME280;4181;43.416;24.598;2023-03-04T00:45:09;100058.56;;;9.17;100.00
8286;BME280;4181;43.416;24.598;2023-03-04T00:47:34;100032.84;;;9.08;100.00
8286;BME280;4181;43.416;24.598;2023-03-04T00:50:00;100028.28;;;9.13;100.00
8286;BME280;4181;43.416;24.598;2023-03-04T00:52:26;100034.06;;;9.17;100.00
8286;BME280;4181;43.416;24.598;2023-03-04T00:54:51;100036.31;;;9.20;100.00
8286;BME280;4181;43.416;24.598;2023-03-04T00:57:17;100042.44;;;9.27;100.00
8286;BME280;4181;43.416;24.598;2023-03-04T00:59:42;100043.66;;;9.19;100.00
8286;BME280;4181;43.416;24.598;2023-03-04T01:02:09;100045.75;;;9.29;100.00
8286;BME280;4181;43.416;24.598;2023-03-04T01:04:35;100046.00;;;9.44;100.00
8286;BME280;4181;43.416;24.598;2023-03-04T01:07:00;100039.72;;;9.43;100.00
8286;BME280;4181;43.416;24.598;2023-03-04T01:09:27;100044.94;;;9.45;100.00
8286;BME280;4181;43.416;24.598;2023-03-04T01:11:53;100044.63;;;9.41;100.00
8286;BME280;4181;43.416;24.598;2023-03-04T01:14:18;100054.81;;;9.18;100.00
8286;BME280;4181;43.416;24.598;2023-03-04T01:16:44;100048.78;;;9.16;100.00
8286;BME280;4181;43.416;24.598;2023-03-04T01:19:10;100034.34;;;9.32;100.00
8286;BME280;4181;43.416;24.598;2023-03-04T01:21:36;100031.09;;;9.46;100.00
8286;BME280;4181;43.416;24.598;2023-03-04T01:24:01;100029.25;;;9.52;100.00
8286;BME280;4181;43.416;24.598;2023-03-04T01:26:27;100032.41;;;9.60;100.00
8286;BME280;4181;43.416;24.598;2023-03-04T01:28:53;100037.50;;;9.57;100.00
8286;BME280;4181;43.416;24.598;2023-03-04T01:31:18;100022.75;;;9.53;100.00
8286;BME280;4181;43.416;24.598;2023-03-04T01:33:44;100032.06;;;9.57;100.00
8286;BME280;4181;43.416;24.598;2023-03-04T01:36:09;100043.47;;;9.70;100.00
8286;BME280;4181;43.416;24.598;2023-03-04T01:38:35;100031.56;;;9.60;100.00
8286;BME280;4181;43.416;24.598;2023-03-04T01:41:00;100024.97;;;9.56;100.00
8286;BME280;4181;43.416;24.598;2023-03-04T01:43:28;100043.97;;;9.51;100.00
8286;BME280;4181;43.416;24.598;2023-03-04T01:45:55;100030.09;;;9.52;100.00
8286;BME280;4181;43.416;24.598;2023-03-04T01:48:26;100017.84;;;9.55;100.00
8286;BME280;4181;43.416;24.598;2023-03-04T01:50:52;100029.41;;;9.62;100.00
8286;BME280;4181;43.416;24.598;2023-03-04T01:53:25;100026.78;;;9.67;100.00
8286;BME280;4181;43.416;24.598;2023-03-04T01:55:55;100040.91;;;9.64;100.00
8286;BME280;4181;43.416;24.598;2023-03-04T01:58:28;100030.25;;;9.62;100.00
8286;BME280;4181;43.416;24.598;2023-03-04T02:00:54;100025.06;;;9.61;100.00
8286;BME280;4181;43.416;24.598;2023-03-04T02:03:19;100034.69;;;9.68;100.00
8286;BME280;4181;43.416;24.598;2023-03-04T02:05:47;100021.59;;;9.65;100.00
8286;BME280;4181;43.416;24.598;2023-03-04T02:08:14;100048.56;;;9.67;100.00
8286;BME280;4181;43.416;24.598;2023-03-04T02:10:41;100038.75;;;9.66;100.00
8286;BME280;4181;43.416;24.598;2023-03-04T02:13:08;100029.75;;;9.65;100.00
8286;BME280;4181;43.416;24.598;2023-03-04T02:15:34;100044.53;;;9.69;100.00
8286;BME280;4181;43.416;24.598;2023-03-04T02:18:00;100046.78;;;9.72;100.00
8286;BME280;4181;43.416;24.598;2023-03-04T02:25:45;100038.00;;;9.70;100.00
8286;BME280;4181;43.416;24.598;2023-03-04T02:28:12;100034.13;;;9.66;100.00
8286;BME280;4181;43.416;24.598;2023-03-04T02:30:37;100033.91;;;9.68;100.00
8286;BME280;4181;43.416;24.598;2023-03-04T02:33:03;100019.34;;;9.46;100.00
8286;BME280;4181;43.416;24.598;2023-03-04T02:35:29;100040.97;;;9.52;100.00
8286;BME280;4181;43.416;24.598;2023-03-04T02:37:54;100029.59;;;9.39;100.00
8286;BME280;4181;43.416;24.598;2023-03-04T02:40:24;100019.78;;;9.38;100.00
8286;BME280;4181;43.416;24.598;2023-03-04T02:42:52;100034.69;;;9.52;100.00
8286;BME280;4181;43.416;24.598;2023-03-04T02:48:06;100031.72;;;9.53;100.00
8286;BME280;4181;43.416;24.598;2023-03-04T02:50:38;100022.41;;;9.66;100.00
8286;BME280;4181;43.416;24.598;2023-03-04T02:53:05;100026.03;;;9.71;100.00
8286;BME280;4181;43.416;24.598;2023-03-04T02:55:30;100031.56;;;9.76;100.00
8286;BME280;4181;43.416;24.598;2023-03-04T02:57:56;100045.94;;;9.72;100.00
8286;BME280;4181;43.416;24.598;2023-03-04T03:00:22;100036.53;;;9.63;100.00
8286;BME280;4181;43.416;24.598;2023-03-04T03:02:47;100031.97;;;9.52;100.00
8286;BME280;4181;43.416;24.598;2023-03-04T03:05:16;100041.75;;;9.64;100.00
8286;BME280;4181;43.416;24.598;2023-03-04T03:07:41;100032.72;;;9.64;100.00
8286;BME280;4181;43.416;24.598;2023-03-04T03:10:08;100015.00;;;9.61;100.00
8286;BME280;4181;43.416;24.598;2023-03-04T03:12:33;100026.44;;;9.63;100.00
8286;BME280;4181;43.416;24.598;2023-03-04T03:14:59;100007.88;;;9.60;100.00
8286;BME280;4181;43.416;24.598;2023-03-04T03:17:24;100039.72;;;9.76;100.00
8286;BME280;4181;43.416;24.598;2023-03-04T03:19:50;100029.09;;;9.75;100.00
8286;BME280;4181;43.416;24.598;2023-03-04T03:22:15;100030.75;;;9.76;100.00
8286;BME280;4181;43.416;24.598;2023-03-04T03:24:41;100030.00;;;9.80;100.00
8286;BME280;4181;43.416;24.598;2023-03-04T03:27:06;100038.50;;;9.67;100.00
8286;BME280;4181;43.416;24.598;2023-03-04T03:29:32;100032.16;;;9.62;100.00
8286;BME280;4181;43.416;24.598;2023-03-04T03:31:57;100020.59;;;9.55;100.00
8286;BME280;4181;43.416;24.598;2023-03-04T03:34:23;100033.72;;;9.58;100.00
8286;BME280;4181;43.416;24.598;2023-03-04T03:36:48;100029.09;;;9.58;100.00
8286;BME280;4181;43.416;24.598;2023-03-04T03:39:13;100017.41;;;9.58;100.00
8286;BME280;4181;43.416;24.598;2023-03-04T03:41:42;100032.47;;;9.49;100.00
8286;BME280;4181;43.416;24.598;2023-03-04T03:44:07;100020.28;;;9.51;100.00
8286;BME280;4181;43.416;24.598;2023-03-04T03:46:33;100009.13;;;9.53;100.00
8286;BME280;4181;43.416;24.598;2023-03-04T03:48:59;100017.72;;;9.61;100.00
8286;BME280;4181;43.416;24.598;2023-03-04T03:51:25;100021.34;;;9.67;100.00
8286;BME280;4181;43.416;24.598;2023-03-04T03:53:51;100017.78;;;9.66;100.00
8286;BME280;4181;43.416;24.598;2023-03-04T03:56:16;100023.63;;;9.75;100.00
8286;BME280;4181;43.416;24.598;2023-03-04T03:58:42;100026.38;;;9.75;100.00
8286;BME280;4181;43.416;24.598;2023-03-04T04:01:07;100019.84;;;9.76;100.00
8286;BME280;4181;43.416;24.598;2023-03-04T04:03:33;100027.53;;;9.79;100.00
8286;BME280;4181;43.416;24.598;2023-03-04T04:05:59;100021.00;;;9.80;100.00
8286;BME280;4181;43.416;24.598;2023-03-04T04:08:24;100033.72;;;9.74;100.00
8286;BME280;4181;43.416;24.598;2023-03-04T04:10:50;100030.84;;;9.81;100.00
8286;BME280;4181;43.416;24.598;2023-03-04T04:13:15;100013.09;;;9.62;100.00
8286;BME280;4181;43.416;24.598;2023-03-04T04:15:41;100029.84;;;9.54;100.00
8286;BME280;4181;43.416;24.598;2023-03-04T04:18:07;100036.72;;;9.56;100.00
8286;BME280;4181;43.416;24.598;2023-03-04T04:20:33;100019.13;;;9.64;100.00
8286;BME280;4181;43.416;24.598;2023-03-04T04:22:59;100030.75;;;9.59;100.00
8286;BME280;4181;43.416;24.598;2023-03-04T04:25:24;100025.66;;;9.63;100.00
8286;BME280;4181;43.416;24.598;2023-03-04T04:27:50;100018.94;;;9.54;100.00
8286;BME280;4181;43.416;24.598;2023-03-04T04:30:15;100004.16;;;9.50;100.00
8286;BME280;4181;43.416;24.598;2023-03-04T04:32:41;99992.72;;;9.48;100.00
8286;BME280;4181;43.416;24.598;2023-03-04T04:35:07;100018.09;;;9.70;100.00
8286;BME280;4181;43.416;24.598;2023-03-04T04:37:32;100006.00;;;9.61;100.00
8286;BME280;4181;43.416;24.598;2023-03-04T04:39:58;100010.44;;;9.67;100.00
8286;BME280;4181;43.416;24.598;2023-03-04T04:42:23;100004.91;;;9.62;100.00
8286;BME280;4181;43.416;24.598;2023-03-04T04:44:49;100017.47;;;9.63;100.00
8286;BME280;4181;43.416;24.598;2023-03-04T04:47:15;100032.31;;;9.72;100.00
8286;BME280;4181;43.416;24.598;2023-03-04T04:49:41;100029.25;;;9.52;100.00
8286;BME280;4181;43.416;24.598;2023-03-04T04:52:06;100030.00;;;9.64;100.00
8286;BME280;4181;43.416;24.598;2023-03-04T04:54:32;100039.34;;;9.68;100.00
8286;BME280;4181;43.416;24.598;2023-03-04T04:56:57;100039.34;;;9.51;100.00
8286;BME280;4181;43.416;24.598;2023-03-04T04:59:23;100036.75;;;9.45;100.00
8286;BME280;4181;43.416;24.598;2023-03-04T05:01:48;100039.66;;;9.55;100.00
8286;BME280;4181;43.416;24.598;2023-03-04T05:04:14;100066.00;;;9.49;100.00
8286;BME280;4181;43.416;24.598;2023-03-04T05:06:39;100059.97;;;9.47;100.00
8286;BME280;4181;43.416;24.598;2023-03-04T05:09:05;100063.97;;;9.45;100.00
8286;BME280;4181;43.416;24.598;2023-03-04T05:11:31;100051.63;;;9.54;100.00
8286;BME280;4181;43.416;24.598;2023-03-04T05:13:57;100034.38;;;9.48;100.00
8286;BME280;4181;43.416;24.598;2023-03-04T05:16:22;100039.66;;;9.55;100.00
8286;BME280;4181;43.416;24.598;2023-03-04T05:18:48;100066.88;;;9.71;100.00
8286;BME280;4181;43.416;24.598;2023-03-04T05:21:13;100059.06;;;9.58;100.00
8286;BME280;4181;43.416;24.598;2023-03-04T05:23:41;100071.88;;;9.74;100.00
8286;BME280;4181;43.416;24.598;2023-03-04T05:26:08;100075.50;;;9.80;100.00
8286;BME280;4181;43.416;24.598;2023-03-04T05:28:34;100063.94;;;9.73;100.00
8286;BME280;4181;43.416;24.598;2023-03-04T05:30:59;100073.19;;;9.72;100.00
8286;BME280;4181;43.416;24.598;2023-03-04T05:33:25;100072.44;;;9.76;100.00
8286;BME280;4181;43.416;24.598;2023-03-04T05:35:50;100099.28;;;9.84;100.00
8286;BME280;4181;43.416;24.598;2023-03-04T05:38:18;100099.03;;;9.86;100.00
8286;BME280;4181;43.416;24.598;2023-03-04T05:40:45;100094.47;;;9.75;100.00
8286;BME280;4181;43.416;24.598;2023-03-04T05:43:11;100096.66;;;9.73;100.00
8286;BME280;4181;43.416;24.598;2023-03-04T05:45:37;100111.16;;;9.78;100.00
8286;BME280;4181;43.416;24.598;2023-03-04T05:48:04;100104.50;;;9.86;100.00
8286;BME280;4181;43.416;24.598;2023-03-04T05:50:30;100101.44;;;9.82;100.00
8286;BME280;4181;43.416;24.598;2023-03-04T05:52:56;100081.94;;;9.74;100.00
8286;BME280;4181;43.416;24.598;2023-03-04T05:55:22;100072.41;;;9.60;100.00
8286;BME280;4181;43.416;24.598;2023-03-04T05:57:48;100090.09;;;9.74;100.00
8286;BME280;4181;43.416;24.598;2023-03-04T06:00:15;100094.00;;;9.78;100.00
8286;BME280;4181;43.416;24.598;2023-03-04T06:02:41;100100.44;;;9.88;100.00
8286;BME280;4181;43.416;24.598;2023-03-04T06:05:09;100098.44;;;10.00;100.00
8286;BME280;4181;43.416;24.598;2023-03-04T06:07:35;100073.19;;;9.88;100.00
8286;BME280;4181;43.416;24.598;2023-03-04T06:10:01;100103.50;;;10.08;100.00
8286;BME280;4181;43.416;24.598;2023-03-04T06:12:26;100091.63;;;9.98;100.00
8286;BME280;4181;43.416;24.598;2023-03-04T06:14:53;100110.19;;;10.01;100.00
8286;BME280;4181;43.416;24.598;2023-03-04T06:17:18;100106.97;;;10.04;100.00
8286;BME280;4181;43.416;24.598;2023-03-04T06:19:44;100118.31;;;10.12;100.00
8286;BME280;4181;43.416;24.598;2023-03-04T06:22:10;100122.41;;;10.15;100.00
8286;BME280;4181;43.416;24.598;2023-03-04T06:24:36;100120.78;;;10.14;100.00
8286;BME280;4181;43.416;24.598;2023-03-04T06:27:02;100118.63;;;10.16;100.00
8286;BME280;4181;43.416;24.598;2023-03-04T06:29:27;100128.53;;;10.22;100.00
8286;BME280;4181;43.416;24.598;2023-03-04T06:31:56;100106.81;;;10.27;100.00
8286;BME280;4181;43.416;24.598;2023-03-04T06:34:24;100105.06;;;10.38;100.00
8286;BME280;4181;43.416;24.598;2023-03-04T06:36:50;100099.59;;;10.38;100.00
8286;BME280;4181;43.416;24.598;2023-03-04T06:39:15;100082.94;;;10.17;100.00
8286;BME280;4181;43.416;24.598;2023-03-04T06:41:41;100086.97;;;10.15;100.00
8286;BME280;4181;43.416;24.598;2023-03-04T06:44:07;100092.81;;;10.40;100.00
8286;BME280;4181;43.416;24.598;2023-03-04T06:46:33;100094.56;;;10.46;100.00
8286;BME280;4181;43.416;24.598;2023-03-04T06:48:59;100079.16;;;10.40;100.00
8286;BME280;4181;43.416;24.598;2023-03-04T06:51:25;100082.69;;;10.57;100.00
8286;BME280;4181;43.416;24.598;2023-03-04T06:53:51;100068.78;;;10.59;100.00
8286;BME280;4181;43.416;24.598;2023-03-04T06:56:16;100093.94;;;10.61;100.00
8286;BME280;4181;43.416;24.598;2023-03-04T06:58:43;100085.16;;;10.59;100.00
8286;BME280;4181;43.416;24.598;2023-03-04T07:01:23;100094.56;;;10.68;100.00
8286;BME280;4181;43.416;24.598;2023-03-04T07:03:52;100084.59;;;10.78;100.00
8286;BME280;4181;43.416;24.598;2023-03-04T07:06:20;100090.81;;;10.95;100.00
8286;BME280;4181;43.416;24.598;2023-03-04T07:08:47;100087.22;;;10.90;100.00
8286;BME280;4181;43.416;24.598;2023-03-04T07:11:13;100074.94;;;10.92;100.00
8286;BME280;4181;43.416;24.598;2023-03-04T07:13:39;100117.13;;;11.01;100.00
8286;BME280;4181;43.416;24.598;2023-03-04T07:16:06;100115.81;;;11.30;100.00
8286;BME280;4181;43.416;24.598;2023-03-04T07:18:33;100109.34;;;11.63;100.00
8286;BME280;4181;43.416;24.598;2023-03-04T07:20:59;100101.19;;;11.95;100.00
8286;BME280;4181;43.416;24.598;2023-03-04T07:23:24;100118.53;;;12.15;100.00
8286;BME280;4181;43.416;24.598;2023-03-04T07:25:50;100114.44;;;12.13;100.00
8286;BME280;4181;43.416;24.598;2023-03-04T07:28:16;100107.59;;;12.15;100.00
8286;BME280;4181;43.416;24.598;2023-03-04T07:30:41;100116.16;;;12.24;100.00
8286;BME280;4181;43.416;24.598;2023-03-04T07:33:07;100128.22;;;12.28;100.00
8286;BME280;4181;43.416;24.598;2023-03-04T07:35:35;100129.34;;;12.32;100.00
8286;BME280;4181;43.416;24.598;2023-03-04T07:38:00;100131.59;;;12.40;100.00
8286;BME280;4181;43.416;24.598;2023-03-04T07:40:26;100130.75;;;12.34;100.00
8286;BME280;4181;43.416;24.598;2023-03-04T07:42:53;100111.81;;;12.28;100.00
8286;BME280;4181;43.416;24.598;2023-03-04T07:45:22;100140.38;;;12.47;100.00
8286;BME280;4181;43.416;24.598;2023-03-04T07:47:48;100133.06;;;12.57;100.00
8286;BME280;4181;43.416;24.598;2023-03-04T07:50:14;100131.22;;;12.63;100.00
8286;BME280;4181;43.416;24.598;2023-03-04T07:52:42;100134.28;;;12.71;100.00
8286;BME280;4181;43.416;24.598;2023-03-04T07:55:09;100144.19;;;12.83;100.00
8286;BME280;4181;43.416;24.598;2023-03-04T07:57:38;100125.19;;;13.13;100.00
8286;BME280;4181;43.416;24.598;2023-03-04T08:00:04;100122.84;;;13.56;100.00
8286;BME280;4181;43.416;24.598;2023-03-04T08:02:30;100113.84;;;14.06;100.00
8286;BME280;4181;43.416;24.598;2023-03-04T08:04:56;100106.72;;;14.45;100.00
8286;BME280;4181;43.416;24.598;2023-03-04T08:07:21;100093.19;;;14.74;100.00
8286;BME280;4181;43.416;24.598;2023-03-04T08:09:47;100124.06;;;15.19;100.00
8286;BME280;4181;43.416;24.598;2023-03-04T08:12:12;100110.56;;;15.23;100.00
8286;BME280;4181;43.416;24.598;2023-03-04T08:14:38;100095.53;;;15.59;100.00
8286;BME280;4181;43.416;24.598;2023-03-04T08:17:03;100099.56;;;15.77;100.00
8286;BME280;4181;43.416;24.598;2023-03-04T08:19:29;100095.50;;;16.03;100.00
8286;BME280;4181;43.416;24.598;2023-03-04T08:21:54;100057.13;;;16.16;100.00
8286;BME280;4181;43.416;24.598;2023-03-04T08:24:20;100058.38;;;16.29;100.00
8286;BME280;4181;43.416;24.598;2023-03-04T08:26:48;100094.06;;;16.68;100.00
8286;BME280;4181;43.416;24.598;2023-03-04T08:29:20;100086.06;;;16.95;100.00
8286;BME280;4181;43.416;24.598;2023-03-04T08:31:47;100084.59;;;17.21;100.00
8286;BME280;4181;43.416;24.598;2023-03-04T08:34:13;100082.22;;;16.91;100.00
8286;BME280;4181;43.416;24.598;2023-03-04T08:36:40;100079.63;;;17.23;100.00
8286;BME280;4181;43.416;24.598;2023-03-04T08:39:06;100078.13;;;17.12;100.00
8286;BME280;4181;43.416;24.598;2023-03-04T08:41:32;100062.47;;;17.44;100.00
8286;BME280;4181;43.416;24.598;2023-03-04T08:43:58;100066.41;;;17.62;100.00
8286;BME280;4181;43.416;24.598;2023-03-04T08:46:24;100077.75;;;17.60;100.00
8286;BME280;4181;43.416;24.598;2023-03-04T08:48:49;100068.94;;;17.58;100.00
8286;BME280;4181;43.416;24.598;2023-03-04T08:51:15;100068.91;;;17.96;100.00
8286;BME280;4181;43.416;24.598;2023-03-04T08:53:41;100066.88;;;18.01;100.00
8286;BME280;4181;43.416;24.598;2023-03-04T08:56:07;100073.78;;;18.17;100.00
8286;BME280;4181;43.416;24.598;2023-03-04T08:58:35;100074.03;;;18.02;100.00
8286;BME280;4181;43.416;24.598;2023-03-04T09:01:01;100056.78;;;17.59;100.00
8286;BME280;4181;43.416;24.598;2023-03-04T09:03:28;100059.50;;;17.97;100.00
8286;BME280;4181;43.416;24.598;2023-03-04T09:05:54;100058.50;;;18.06;100.00
8286;BME280;4181;43.416;24.598;2023-03-04T09:08:20;100065.91;;;18.24;100.00
8286;BME280;4181;43.416;24.598;2023-03-04T09:10:46;100073.00;;;17.98;100.00
8286;BME280;4181;43.416;24.598;2023-03-04T09:13:12;100063.13;;;17.60;100.00
8286;BME280;4181;43.416;24.598;2023-03-04T09:15:45;100083.94;;;17.10;100.00
8286;BME280;4181;43.416;24.598;2023-03-04T09:18:11;100090.09;;;16.79;100.00
8286;BME280;4181;43.416;24.598;2023-03-04T09:20:36;100087.16;;;16.47;100.00
8286;BME280;4181;43.416;24.598;2023-03-04T09:23:02;100087.28;;;16.84;100.00
8286;BME280;4181;43.416;24.598;2023-03-04T09:25:27;100072.81;;;16.97;100.00
8286;BME280;4181;43.416;24.598;2023-03-04T09:27:53;100082.06;;;16.59;100.00
8286;BME280;4181;43.416;24.598;2023-03-04T09:30:19;100069.78;;;16.46;100.00
8286;BME280;4181;43.416;24.598;2023-03-04T09:32:44;100053.09;;;16.61;100.00
8286;BME280;4181;43.416;24.598;2023-03-04T09:35:10;100050.88;;;16.63;100.00
8286;BME280;4181;43.416;24.598;2023-03-04T09:37:36;100046.31;;;16.77;100.00
8286;BME280;4181;43.416;24.598;2023-03-04T09:40:03;100065.13;;;16.94;100.00
8286;BME280;4181;43.416;24.598;2023-03-04T09:42:34;100056.19;;;17.02;100.00
8286;BME280;4181;43.416;24.598;2023-03-04T09:45:03;100059.22;;;16.82;100.00
8286;BME280;4181;43.416;24.598;2023-03-04T09:47:33;100060.25;;;16.86;100.00
8286;BME280;4181;43.416;24.598;2023-03-04T09:50:02;100035.97;;;16.88;100.00
8286;BME280;4181;43.416;24.598;2023-03-04T09:55:12;100032.56;;;16.96;100.00
8286;BME280;4181;43.416;24.598;2023-03-04T09:58:09;100044.75;;;17.32;100.00
8286;BME280;4181;43.416;24.598;2023-03-04T10:00:46;100029.66;;;17.48;100.00
8286;BME280;4181;43.416;24.598;2023-03-04T10:06:05;100031.50;;;17.52;100.00
8286;BME280;4181;43.416;24.598;2023-03-04T10:11:15;100019.94;;;17.32;100.00
8286;BME280;4181;43.416;24.598;2023-03-04T10:19:58;100035.59;;;16.52;100.00
8286;BME280;4181;43.416;24.598;2023-03-04T10:22:38;100027.28;;;16.57;100.00
8286;BME280;4181;43.416;24.598;2023-03-04T10:28:02;100017.06;;;16.58;100.00
8286;BME280;4181;43.416;24.598;2023-03-04T10:30:52;100010.06;;;16.89;100.00
8286;BME280;4181;43.416;24.598;2023-03-04T10:33:26;100008.81;;;17.00;100.00
8286;BME280;4181;43.416;24.598;2023-03-04T10:36:02;100008.13;;;17.08;100.00
8286;BME280;4181;43.416;24.598;2023-03-04T10:38:37;99997.19;;;17.21;100.00
8286;BME280;4181;43.416;24.598;2023-03-04T10:41:16;99987.19;;;17.62;100.00
8286;BME280;4181;43.416;24.598;2023-03-04T10:43:42;99983.06;;;17.79;100.00
8286;BME280;4181;43.416;24.598;2023-03-04T10:46:11;99985.63;;;17.75;100.00
8286;BME280;4181;43.416;24.598;2023-03-04T10:48:40;99963.50;;;17.61;100.00
8286;BME280;4181;43.416;24.598;2023-03-04T10:51:30;99967.94;;;17.76;100.00
8286;BME280;4181;43.416;24.598;2023-03-04T11:01:52;99954.34;;;17.29;100.00
8286;BME280;4181;43.416;24.598;2023-03-04T11:04:19;99954.94;;;17.26;100.00
8286;BME280;4181;43.416;24.598;2023-03-04T11:06:47;99923.75;;;16.93;100.00
8286;BME280;4181;43.416;24.598;2023-03-04T11:09:22;99945.13;;;17.20;100.00
8286;BME280;4181;43.416;24.598;2023-03-04T11:11:49;99926.88;;;17.56;100.00
8286;BME280;4181;43.416;24.598;2023-03-04T11:14:22;99933.53;;;17.87;100.00
8286;BME280;4181;43.416;24.598;2023-03-04T11:16:55;99911.66;;;17.91;100.00
8286;BME280;4181;43.416;24.598;2023-03-04T11:19:23;99914.31;;;18.09;100.00
8286;BME280;4181;43.416;24.598;2023-03-04T11:21:50;99912.88;;;17.98;100.00
8286;BME280;4181;43.416;24.598;2023-03-04T11:24:22;99905.13;;;17.54;100.00
8286;BME280;4181;43.416;24.598;2023-03-04T11:26:55;99915.22;;;17.45;100.00
8286;BME280;4181;43.416;24.598;2023-03-04T11:29:28;99902.44;;;17.49;100.00
8286;BME280;4181;43.416;24.598;2023-03-04T11:32:05;99904.72;;;17.29;100.00
8286;BME280;4181;43.416;24.598;2023-03-04T11:37:34;99883.16;;;17.31;100.00
8286;BME280;4181;43.416;24.598;2023-03-04T11:40:12;99890.03;;;17.65;100.00
8286;BME280;4181;43.416;24.598;2023-03-04T11:50:53;99867.28;;;18.01;100.00
8286;BME280;4181;43.416;24.598;2023-03-04T12:04:39;99860.50;;;17.80;100.00
8286;BME280;4181;43.416;24.598;2023-03-04T12:07:19;99860.50;;;17.80;100.00
8286;BME280;4181;43.416;24.598;2023-03-04T12:15:41;99864.09;;;17.16;100.00
8286;BME280;4181;43.416;24.598;2023-03-04T12:21:30;99872.28;;;16.89;100.00
8286;BME280;4181;43.416;24.598;2023-03-04T12:27:26;99868.38;;;16.53;100.00
8286;BME280;4181;43.416;24.598;2023-03-04T12:40:44;99840.59;;;16.30;100.00
8286;BME280;4181;43.416;24.598;2023-03-04T12:43:41;99836.41;;;16.57;100.00
8286;BME280;4181;43.416;24.598;2023-03-04T12:46:17;99838.84;;;16.77;100.00
8286;BME280;4181;43.416;24.598;2023-03-04T12:56:40;99811.97;;;16.69;100.00
8286;BME280;4181;43.416;24.598;2023-03-04T12:59:14;99812.03;;;16.82;100.00
8286;BME280;4181;43.416;24.598;2023-03-04T13:01:48;99800.69;;;17.02;100.00
8286;BME280;4181;43.416;24.598;2023-03-04T13:04:27;99787.34;;;17.23;100.00
8286;BME280;4181;43.416;24.598;2023-03-04T13:07:33;99792.69;;;17.33;100.00
8286;BME280;4181;43.416;24.598;2023-03-04T13:10:15;99778.31;;;17.49;100.00
8286;BME280;4181;43.416;24.598;2023-03-04T13:12:56;99784.06;;;17.53;100.00
8286;BME280;4181;43.416;24.598;2023-03-04T13:17:57;99788.56;;;17.49;100.00
8286;BME280;4181;43.416;24.598;2023-03-04T13:43:55;99773.66;;;16.86;100.00
8286;BME280;4181;43.416;24.598;2023-03-04T13:51:25;99747.72;;;16.55;100.00
8286;BME280;4181;43.416;24.598;2023-03-04T13:53:54;99762.09;;;16.70;100.00
8286;BME280;4181;43.416;24.598;2023-03-04T13:56:24;99751.22;;;16.79;100.00
8286;BME280;4181;43.416;24.598;2023-03-04T13:59:33;99760.34;;;16.74;100.00
8286;BME280;4181;43.416;24.598;2023-03-04T14:02:21;99755.66;;;16.75;100.00
8286;BME280;4181;43.416;24.598;2023-03-04T14:07:27;99744.75;;;16.51;100.00
8286;BME280;4181;43.416;24.598;2023-03-04T14:12:22;99750.09;;;16.61;100.00
8286;BME280;4181;43.416;24.598;2023-03-04T14:14:51;99735.16;;;16.67;100.00
8286;BME280;4181;43.416;24.598;2023-03-04T14:17:20;99735.16;;;16.81;100.00
8286;BME280;4181;43.416;24.598;2023-03-04T14:19:48;99726.28;;;16.70;100.00
8286;BME280;4181;43.416;24.598;2023-03-04T14:27:37;99734.69;;;16.41;100.00
8286;BME280;4181;43.416;24.598;2023-03-04T14:30:07;99725.31;;;16.42;100.00
8286;BME280;4181;43.416;24.598;2023-03-04T14:32:32;99720.47;;;16.34;100.00
8286;BME280;4181;43.416;24.598;2023-03-04T14:35:02;99722.50;;;16.48;100.00
8286;BME280;4181;43.416;24.598;2023-03-04T14:37:43;99721.31;;;16.54;100.00
8286;BME280;4181;43.416;24.598;2023-03-04T14:40:19;99707.69;;;16.43;100.00
8286;BME280;4181;43.416;24.598;2023-03-04T14:42:47;99704.88;;;16.30;100.00
8286;BME280;4181;43.416;24.598;2023-03-04T14:45:15;99726.66;;;16.26;100.00
8286;BME280;4181;43.416;24.598;2023-03-04T14:47:45;99721.47;;;16.06;100.00
8286;BME280;4181;43.416;24.598;2023-03-04T14:50:16;99724.75;;;16.08;100.00
8286;BME280;4181;43.416;24.598;2023-03-04T14:53:02;99720.22;;;15.99;100.00
8286;BME280;4181;43.416;24.598;2023-03-04T14:55:28;99717.66;;;16.02;100.00
8286;BME280;4181;43.416;24.598;2023-03-04T14:58:09;99720.22;;;15.99;100.00
8286;BME280;4181;43.416;24.598;2023-03-04T15:00:44;99709.91;;;15.86;100.00
8286;BME280;4181;43.416;24.598;2023-03-04T15:03:21;99712.88;;;15.71;100.00
8286;BME280;4181;43.416;24.598;2023-03-04T15:05:49;99698.22;;;15.57;100.00
8286;BME280;4181;43.416;24.598;2023-03-04T15:10:56;99715.38;;;15.67;100.00
8286;BME280;4181;43.416;24.598;2023-03-04T15:13:48;99708.78;;;15.68;100.00